La Isla, Colorado
Current Conditions -  °F | °C
As of 10:52 PM on Friday 28 Nov 2014 (Local Time) from KALS Reporting Station
Clear Clear  
Wind Chill: 27°   Ceiling: Unl
Heat Index: 27°   Visibility: 10mi
Dew Point:   Wind: 0mph
Humidity: 39%   Direction: NA
Pressure: 30.07"   Gusts: NA
Location:  37.1816°N, 106.262°W
Report Text: KALS 290552Z AUTO 00000KT 10SM CLR M03/M15 A3007 RMK AO2 SLP168 T10281150 10094 21044 58003
Loading
Personal Weather Stations






























Interactive Weather Map New forecast layout! Learn more

10-Day Weather Forecast

Advertisements
Track Severe Weather on mobile